Vendome Street — A8YI6 — position and weather

sailwx.info

Track history (hours):
 
Tides and Currents Weather Stations Pressure Air Temp Water Temp Dewpoint Dewpoint Depression Visibility Wind Speed Wind Dir Waves Ship Positions

Vendome Street

Last reported at 2015-Jan-04 11:33 UTC. Time now 2015-Feb-01 07:09 UTC.
Position S 13°07' W 038°28'.
Warning: this ship's position is 27 days out of date.

Length 177 m; draft 8 m.

Type: Tanker. MMSI: 636015064.

Date/timePositionNaut miles runAvg speedWind from/ knotsBaromVisibWave heightAir tempDewpointWater temp
2015-Jan-04 11:33S 13°07' W 038°28'7 7.5
2015-Jan-04 10:33S 13°02' W 038°33'1110.7
2015-Jan-04 09:33S 12°51' W 038°32'4 0.1
2015-Jan-02 17:33S 12°47' W 038°30'0 0.0
2015-Jan-02 16:33S 12°47' W 038°30'6 6.1
2015-Jan-02 15:33S 12°52' W 038°33'5 4.4
2015-Jan-02 14:31S 12°57' W 038°34'0 0.0
2015-Jan-02 13:31S 12°57' W 038°34'0 0.1
2015-Jan-02 12:31S 12°57' W 038°34'0 0.2
2015-Jan-02 11:31S 12°57' W 038°34'0 0.0
2015-Jan-02 10:31S 12°57' W 038°34'0 0.1
2015-Jan-02 09:31S 12°57' W 038°34'0 0.0
2015-Jan-02 08:31S 12°57' W 038°34'0 0.0
2015-Jan-02 07:31S 12°57' W 038°34'0 0.0
2015-Jan-02 06:31S 12°57' W 038°34'0 0.1
2015-Jan-02 05:31S 12°57' W 038°34'0 0.1
2015-Jan-02 04:31S 12°57' W 038°34'0 0.0
2015-Jan-02 03:31S 12°57' W 038°34'0 0.0
2015-Jan-02 02:31S 12°57' W 038°34'0 0.0
2015-Jan-02 01:31S 12°57' W 038°34'0 0.0
2015-Jan-02 00:31S 12°57' W 038°34'0 0.1
2015-Jan-01 23:31S 12°57' W 038°34'0 0.2
2015-Jan-01 22:31S 12°57' W 038°34'0 0.0
2015-Jan-01 21:31S 12°57' W 038°34'0 0.0
2015-Jan-01 20:31S 12°57' W 038°34'0 0.1
2015-Jan-01 19:31S 12°57' W 038°34'0 0.1
2015-Jan-01 18:31S 12°57' W 038°34'0 0.1
2015-Jan-01 17:31S 12°57' W 038°34'0 0.1
2015-Jan-01 16:31S 12°57' W 038°34'0 0.0
2015-Jan-01 15:31S 12°57' W 038°34'0 0.0
2015-Jan-01 14:31S 12°57' W 038°34'0 0.1
2015-Jan-01 13:31S 12°57' W 038°34'0 0.1
2015-Jan-01 12:31S 12°57' W 038°34'0 0.2
2015-Jan-01 11:31S 12°57' W 038°34'0 0.1
2015-Jan-01 10:31S 12°57' W 038°34'0 0.0
2015-Jan-01 09:31S 12°57' W 038°34'0 0.0
2015-Jan-01 08:31S 12°57' W 038°34'0 0.0
2015-Jan-01 07:31S 12°57' W 038°34'0 0.0
2015-Jan-01 06:31S 12°57' W 038°34'0 0.0
2015-Jan-01 05:31S 12°57' W 038°34'0 0.2
2015-Jan-01 04:31S 12°57' W 038°34'0 0.0
2015-Jan-01 03:31S 12°57' W 038°34'0 0.0
2015-Jan-01 02:31S 12°57' W 038°34'0 0.0
2015-Jan-01 01:31S 12°57' W 038°34'0 0.1
2015-Jan-01 00:31S 12°57' W 038°34'0 0.0
2014-Dec-31 23:31S 12°57' W 038°34'0 0.1
2014-Dec-31 22:31S 12°57' W 038°34'0 0.1
2014-Dec-31 21:31S 12°57' W 038°34'0 0.0
2014-Dec-31 20:31S 12°57' W 038°34'0 0.0
2014-Dec-31 19:31S 12°57' W 038°34'0 0.0
2014-Dec-31 18:31S 12°57' W 038°34'0 0.1
2014-Dec-31 17:31S 12°57' W 038°34'0 0.2
2014-Dec-31 16:31S 12°57' W 038°34'0 0.0
2014-Dec-31 15:31S 12°57' W 038°34'0 0.1
2014-Dec-31 14:31S 12°57' W 038°34'0 0.0
2014-Dec-31 13:31S 12°57' W 038°34'0 0.0
2014-Dec-31 12:31S 12°57' W 038°34'0 0.2
2014-Dec-31 11:31S 12°57' W 038°34'0 0.0
2014-Dec-31 10:31S 12°57' W 038°34'0 0.0
2014-Dec-31 09:31S 12°57' W 038°34'0 0.0
2014-Dec-31 08:31S 12°57' W 038°34'0 0.0
2014-Dec-31 07:31S 12°57' W 038°34'0 0.0
2014-Dec-31 03:31S 12°57' W 038°34'0 0.0
2014-Dec-31 02:31S 12°57' W 038°34'0 0.0
2014-Dec-31 01:31S 12°57' W 038°34'0 0.0
2014-Dec-31 00:31S 12°57' W 038°34'0 0.1
2014-Dec-30 22:31S 12°57' W 038°34'0 0.1
2014-Dec-30 21:31S 12°57' W 038°34'0 0.1
2014-Dec-30 20:31S 12°57' W 038°34'0 0.0
2014-Dec-30 19:31S 12°57' W 038°34'0 0.0
2014-Dec-30 18:31S 12°57' W 038°34'0 0.0
2014-Dec-30 17:31S 12°57' W 038°34'0 0.0
2014-Dec-30 16:31S 12°57' W 038°34'0 0.2
2014-Dec-30 15:31S 12°57' W 038°34'0 0.0
2014-Dec-30 14:31S 12°57' W 038°34'0 0.1
2014-Dec-30 13:31S 12°57' W 038°34'0 0.2
2014-Dec-30 12:31S 12°57' W 038°34'0 0.0
2014-Dec-30 11:31S 12°57' W 038°34'0 0.1
2014-Dec-30 10:31S 12°57' W 038°34'0 0.1
2014-Dec-30 09:31S 12°57' W 038°34'0 0.0
2014-Dec-30 08:31S 12°57' W 038°34'0 0.0
2014-Dec-30 07:31S 12°57' W 038°34'0 0.0
2014-Dec-30 06:31S 12°57' W 038°34'0 0.0
2014-Dec-30 05:31S 12°57' W 038°34'0 0.0
2014-Dec-30 04:31S 12°57' W 038°34'0 0.0
2014-Dec-30 03:31S 12°57' W 038°34'0 0.1
2014-Dec-30 02:31S 12°57' W 038°34'0 0.2
2014-Dec-30 01:31S 12°57' W 038°34'1 0.8
2014-Dec-30 00:33S 12°58' W 038°34'9 8.8
2014-Dec-29 23:33S 13°06' W 038°35'7 7.3
2014-Dec-29 22:33S 13°10' W 038°28'  
Track history (hours):
 
Tides and Currents Weather Stations Pressure Air Temp Water Temp Dewpoint Dewpoint Depression Visibility Wind Speed Wind Dir Waves Ship Positions

Vendome Street

Last reported at 2015-Jan-04 11:33 UTC. Time now 2015-Feb-01 07:09 UTC.
Position S 13°07' W 038°28'.
Warning: this ship's position is 27 days out of date.

Length 177 m; draft 8 m.

Type: Tanker. MMSI: 636015064.

Date/timePositionNaut miles runAvg speedWind from/ knotsBaromVisibWave heightAir tempDewpointWater temp
2015-Jan-04 11:33S 13°07' W 038°28'7 7.5
2015-Jan-04 10:33S 13°02' W 038°33'1110.7
2015-Jan-04 09:33S 12°51' W 038°32'4 0.1
2015-Jan-02 17:33S 12°47' W 038°30'0 0.0
2015-Jan-02 16:33S 12°47' W 038°30'6 6.1
2015-Jan-02 15:33S 12°52' W 038°33'5 4.4
2015-Jan-02 14:31S 12°57' W 038°34'0 0.0
2015-Jan-02 13:31S 12°57' W 038°34'0 0.1
2015-Jan-02 12:31S 12°57' W 038°34'0 0.2
2015-Jan-02 11:31S 12°57' W 038°34'0 0.0
2015-Jan-02 10:31S 12°57' W 038°34'0 0.1
2015-Jan-02 09:31S 12°57' W 038°34'0 0.0
2015-Jan-02 08:31S 12°57' W 038°34'0 0.0
2015-Jan-02 07:31S 12°57' W 038°34'0 0.0
2015-Jan-02 06:31S 12°57' W 038°34'0 0.1
2015-Jan-02 05:31S 12°57' W 038°34'0 0.1
2015-Jan-02 04:31S 12°57' W 038°34'0 0.0
2015-Jan-02 03:31S 12°57' W 038°34'0 0.0
2015-Jan-02 02:31S 12°57' W 038°34'0 0.0
2015-Jan-02 01:31S 12°57' W 038°34'0 0.0
2015-Jan-02 00:31S 12°57' W 038°34'0 0.1
2015-Jan-01 23:31S 12°57' W 038°34'0 0.2
2015-Jan-01 22:31S 12°57' W 038°34'0 0.0
2015-Jan-01 21:31S 12°57' W 038°34'0 0.0
2015-Jan-01 20:31S 12°57' W 038°34'0 0.1
2015-Jan-01 19:31S 12°57' W 038°34'0 0.1
2015-Jan-01 18:31S 12°57' W 038°34'0 0.1
2015-Jan-01 17:31S 12°57' W 038°34'0 0.1
2015-Jan-01 16:31S 12°57' W 038°34'0 0.0
2015-Jan-01 15:31S 12°57' W 038°34'0 0.0
2015-Jan-01 14:31S 12°57' W 038°34'0 0.1
2015-Jan-01 13:31S 12°57' W 038°34'0 0.1
2015-Jan-01 12:31S 12°57' W 038°34'0 0.2
2015-Jan-01 11:31S 12°57' W 038°34'0 0.1
2015-Jan-01 10:31S 12°57' W 038°34'0 0.0
2015-Jan-01 09:31S 12°57' W 038°34'0 0.0
2015-Jan-01 08:31S 12°57' W 038°34'0 0.0
2015-Jan-01 07:31S 12°57' W 038°34'0 0.0
2015-Jan-01 06:31S 12°57' W 038°34'0 0.0
2015-Jan-01 05:31S 12°57' W 038°34'0 0.2
2015-Jan-01 04:31S 12°57' W 038°34'0 0.0
2015-Jan-01 03:31S 12°57' W 038°34'0 0.0
2015-Jan-01 02:31S 12°57' W 038°34'0 0.0
2015-Jan-01 01:31S 12°57' W 038°34'0 0.1
2015-Jan-01 00:31S 12°57' W 038°34'0 0.0
2014-Dec-31 23:31S 12°57' W 038°34'0 0.1
2014-Dec-31 22:31S 12°57' W 038°34'0 0.1
2014-Dec-31 21:31S 12°57' W 038°34'0 0.0
2014-Dec-31 20:31S 12°57' W 038°34'0 0.0
2014-Dec-31 19:31S 12°57' W 038°34'0 0.0
2014-Dec-31 18:31S 12°57' W 038°34'0 0.1
2014-Dec-31 17:31S 12°57' W 038°34'0 0.2
2014-Dec-31 16:31S 12°57' W 038°34'0 0.0
2014-Dec-31 15:31S 12°57' W 038°34'0 0.1
2014-Dec-31 14:31S 12°57' W 038°34'0 0.0
2014-Dec-31 13:31S 12°57' W 038°34'0 0.0
2014-Dec-31 12:31S 12°57' W 038°34'0 0.2
2014-Dec-31 11:31S 12°57' W 038°34'0 0.0
2014-Dec-31 10:31S 12°57' W 038°34'0 0.0
2014-Dec-31 09:31S 12°57' W 038°34'0 0.0
2014-Dec-31 08:31S 12°57' W 038°34'0 0.0
2014-Dec-31 07:31S 12°57' W 038°34'0 0.0
2014-Dec-31 03:31S 12°57' W 038°34'0 0.0
2014-Dec-31 02:31S 12°57' W 038°34'0 0.0
2014-Dec-31 01:31S 12°57' W 038°34'0 0.0
2014-Dec-31 00:31S 12°57' W 038°34'0 0.1
2014-Dec-30 22:31S 12°57' W 038°34'0 0.1
2014-Dec-30 21:31S 12°57' W 038°34'0 0.1
2014-Dec-30 20:31S 12°57' W 038°34'0 0.0
2014-Dec-30 19:31S 12°57' W 038°34'0 0.0
2014-Dec-30 18:31S 12°57' W 038°34'0 0.0
2014-Dec-30 17:31S 12°57' W 038°34'0 0.0
2014-Dec-30 16:31S 12°57' W 038°34'0 0.2
2014-Dec-30 15:31S 12°57' W 038°34'0 0.0
2014-Dec-30 14:31S 12°57' W 038°34'0 0.1
2014-Dec-30 13:31S 12°57' W 038°34'0 0.2
2014-Dec-30 12:31S 12°57' W 038°34'0 0.0
2014-Dec-30 11:31S 12°57' W 038°34'0 0.1
2014-Dec-30 10:31S 12°57' W 038°34'0 0.1
2014-Dec-30 09:31S 12°57' W 038°34'0 0.0
2014-Dec-30 08:31S 12°57' W 038°34'0 0.0
2014-Dec-30 07:31S 12°57' W 038°34'0 0.0
2014-Dec-30 06:31S 12°57' W 038°34'0 0.0
2014-Dec-30 05:31S 12°57' W 038°34'0 0.0
2014-Dec-30 04:31S 12°57' W 038°34'0 0.0
2014-Dec-30 03:31S 12°57' W 038°34'0 0.1
2014-Dec-30 02:31S 12°57' W 038°34'0 0.2
2014-Dec-30 01:31S 12°57' W 038°34'1 0.8
2014-Dec-30 00:33S 12°58' W 038°34'9 8.8
2014-Dec-29 23:33S 13°06' W 038°35'7 7.3
2014-Dec-29 22:33S 13°10' W 038°28'  

Dump ship's entire track history